createdAt,value
2023-02-12T00:01:27.042Z,27.53
2023-02-12T00:03:54.472Z,25.75
2023-02-12T00:06:22.626Z,26.50
2023-02-12T00:08:53.726Z,24.47
2023-02-12T00:11:28.629Z,34.37
2023-02-12T00:13:57.698Z,32.30
2023-02-12T00:16:29.367Z,28.20
2023-02-12T00:18:59.305Z,26.20
2023-02-12T00:21:28.862Z,27.40
2023-02-12T00:23:57.153Z,26.77
2023-02-12T00:26:25.351Z,27.60
2023-02-12T00:28:53.457Z,32.80
2023-02-12T00:31:27.561Z,27.07
2023-02-12T00:33:55.467Z,28.97
2023-02-12T00:36:26.577Z,27.60
2023-02-12T00:38:56.575Z,29.80
2023-02-12T00:41:23.933Z,27.70
2023-02-12T00:43:51.188Z,27.07
2023-02-12T00:46:18.761Z,28.20
2023-02-12T00:48:45.762Z,33.07
2023-02-12T00:51:13.330Z,33.90
2023-02-12T00:53:40.255Z,32.33
2023-02-12T00:56:07.895Z,30.60
2023-02-12T00:58:34.809Z,32.63
2023-02-12T01:01:01.879Z,28.80
2023-02-12T01:03:28.778Z,28.17
2023-02-12T01:05:57.306Z,31.33
2023-02-12T01:08:24.828Z,29.43
2023-02-12T01:11:02.497Z,25.73
2023-02-12T01:13:32.251Z,32.10
2023-02-12T01:16:23.421Z,28.67
2023-02-12T01:18:55.811Z,37.10
2023-02-12T01:21:29.390Z,28.37
2023-02-12T01:23:57.979Z,32.67
2023-02-12T01:26:26.341Z,28.83
2023-02-12T01:28:59.186Z,31.07
2023-02-12T01:31:36.235Z,31.23
2023-02-12T01:34:06.199Z,27.07
2023-02-12T01:36:34.216Z,32.63
2023-02-12T01:39:02.839Z,35.87
2023-02-12T01:41:42.392Z,31.27
2023-02-12T01:44:22.019Z,34.73
2023-02-12T01:46:58.030Z,28.27
2023-02-12T01:49:37.767Z,26.23
2023-02-12T01:52:22.357Z,31.17
2023-02-12T01:54:52.243Z,32.90
2023-02-12T01:57:20.673Z,31.63
2023-02-12T01:59:54.493Z,32.27
2023-02-12T02:02:21.491Z,36.13
2023-02-12T02:05:02.021Z,30.63
2023-02-12T02:07:30.443Z,32.70
2023-02-12T02:09:58.921Z,31.37
2023-02-12T02:12:46.234Z,32.63
2023-02-12T02:15:13.279Z,32.50
2023-02-12T02:18:36.202Z,35.60
2023-02-12T02:21:43.579Z,33.37
2023-02-12T02:24:52.004Z,34.25
2023-02-12T02:27:39.675Z,34.73
2023-02-12T02:30:33.314Z,33.30
2023-02-12T02:33:44.735Z,32.55
2023-02-12T02:36:31.281Z,39.97
2023-02-12T02:39:22.577Z,31.50
2023-02-12T02:42:17.286Z,32.90
2023-02-12T02:44:50.332Z,28.83
2023-02-12T02:47:31.148Z,32.67
2023-02-12T02:50:13.559Z,33.53
2023-02-12T02:52:52.303Z,33.60
2023-02-12T02:55:24.965Z,33.10
2023-02-12T02:58:01.115Z,35.40
2023-02-12T03:00:53.856Z,38.50
2023-02-12T03:03:48.569Z,32.83
2023-02-12T03:07:00.626Z,36.57
2023-02-12T03:09:47.017Z,33.80
2023-02-12T03:12:29.280Z,31.97
2023-02-12T03:15:51.837Z,35.33
2023-02-12T03:18:58.913Z,32.37
2023-02-12T03:21:44.541Z,35.50
2023-02-12T03:24:38.716Z,35.00
2023-02-12T03:27:26.144Z,37.97
2023-02-12T03:29:53.488Z,30.45
2023-02-12T03:32:52.479Z,36.87
2023-02-12T03:35:38.203Z,32.13
2023-02-12T03:38:34.317Z,35.73
2023-02-12T03:41:28.602Z,32.77
2023-02-12T03:44:34.678Z,40.10
2023-02-12T03:47:22.574Z,44.57
2023-02-12T03:50:13.294Z,55.20
2023-02-12T03:52:41.035Z,44.23
2023-02-12T03:55:08.486Z,38.22
2023-02-12T03:57:46.618Z,40.70
2023-02-12T04:00:23.933Z,36.90
2023-02-12T04:02:53.320Z,40.58
2023-02-12T04:05:27.783Z,43.73
2023-02-12T04:07:59.706Z,47.50
2023-02-12T04:10:52.698Z,47.57
2023-02-12T04:13:50.576Z,38.50
2023-02-12T04:16:37.943Z,46.25
2023-02-12T04:19:05.704Z,52.57
2023-02-12T04:22:14.516Z,50.97
2023-02-12T04:25:04.099Z,53.37
2023-02-12T04:27:54.267Z,46.73
2023-02-12T04:31:08.443Z,48.40
2023-02-12T04:33:53.369Z,49.90
2023-02-12T04:36:35.142Z,44.87
2023-02-12T04:39:28.760Z,48.60
2023-02-12T04:42:00.967Z,58.53
2023-02-12T04:44:38.921Z,44.28
2023-02-12T04:47:06.100Z,44.38
2023-02-12T04:49:33.234Z,45.65
2023-02-12T04:52:00.229Z,43.00
2023-02-12T04:54:27.187Z,51.90
2023-02-12T04:56:54.058Z,47.53
2023-02-12T04:59:21.319Z,60.45
2023-02-12T05:01:48.354Z,62.90
2023-02-12T05:04:17.836Z,52.75
2023-02-12T05:06:46.517Z,63.28
2023-02-12T05:09:20.314Z,50.03
2023-02-12T05:11:47.336Z,55.07
2023-02-12T05:14:14.802Z,57.33
2023-02-12T05:16:42.273Z,53.83
2023-02-12T05:19:09.497Z,47.60
2023-02-12T05:21:38.371Z,65.70
2023-02-12T05:24:06.242Z,67.90
2023-02-12T05:26:33.313Z,69.47
2023-02-12T05:29:00.212Z,87.77
2023-02-12T05:31:27.549Z,54.83
2023-02-12T05:33:54.617Z,103.93
2023-02-12T05:36:24.995Z,69.63
2023-02-12T05:38:58.001Z,69.33
2023-02-12T05:41:25.943Z,106.33
2023-02-12T05:43:54.307Z,64.93
2023-02-12T05:46:22.324Z,104.77
2023-02-12T05:48:49.300Z,80.77
2023-02-12T05:51:25.126Z,120.87
2023-02-12T05:53:58.724Z,50.65
2023-02-12T05:56:30.307Z,62.67
2023-02-12T05:59:03.657Z,69.83
2023-02-12T06:01:39.384Z,83.87
2023-02-12T06:04:13.525Z,89.27
2023-02-12T06:06:43.146Z,85.03
2023-02-12T06:09:13.250Z,84.07
2023-02-12T06:11:40.781Z,85.60
2023-02-12T06:14:17.563Z,166.93
2023-02-12T06:16:48.303Z,65.90
2023-02-12T06:19:15.741Z,105.87
2023-02-12T06:21:43.205Z,136.13
2023-02-12T06:24:16.328Z,108.27
2023-02-12T06:26:43.809Z,96.93
2023-02-12T06:29:11.566Z,122.87
2023-02-12T06:31:38.832Z,93.30
2023-02-12T06:34:11.433Z,128.43
2023-02-12T06:36:42.310Z,167.52
2023-02-12T06:39:10.302Z,141.10
2023-02-12T06:41:37.707Z,108.70
2023-02-12T06:44:06.065Z,93.43
2023-02-12T06:46:33.073Z,166.00
2023-02-12T06:49:01.102Z,105.90
2023-02-12T06:51:30.029Z,75.30
2023-02-12T06:53:58.247Z,94.32
2023-02-12T06:56:27.413Z,110.90
2023-02-12T06:58:59.452Z,92.40
2023-02-12T07:01:29.305Z,150.83
2023-02-12T07:04:03.207Z,129.07
2023-02-12T07:06:34.281Z,65.83
2023-02-12T07:09:03.176Z,115.30
2023-02-12T07:11:38.339Z,69.37
2023-02-12T07:14:07.156Z,121.03
2023-02-12T07:16:34.189Z,89.33
2023-02-12T07:19:01.097Z,86.83
2023-02-12T07:21:28.039Z,116.80
2023-02-12T07:23:55.284Z,212.73
2023-02-12T07:26:23.326Z,94.70
2023-02-12T07:28:51.414Z,133.00
2023-02-12T07:31:23.059Z,109.17
2023-02-12T07:33:56.258Z,154.53
2023-02-12T07:36:27.446Z,102.73
2023-02-12T07:38:56.810Z,69.70
2023-02-12T07:41:35.799Z,79.63
2023-02-12T07:44:11.192Z,93.40
2023-02-12T07:46:49.018Z,111.40
2023-02-12T07:49:22.186Z,115.87
2023-02-12T07:51:50.437Z,100.77
2023-02-12T07:54:17.756Z,106.50
2023-02-12T07:56:46.810Z,93.50
2023-02-12T07:59:17.940Z,111.67
2023-02-12T08:01:53.460Z,100.17
2023-02-12T08:04:25.808Z,74.70
2023-02-12T08:06:55.941Z,68.60
2023-02-12T08:09:28.460Z,62.87
2023-02-12T08:12:00.405Z,90.17
2023-02-12T08:14:30.391Z,107.13
2023-02-12T08:16:57.299Z,96.10
2023-02-12T08:19:26.600Z,94.33
2023-02-12T08:21:56.680Z,94.13
2023-02-12T08:24:25.407Z,72.83
2023-02-12T08:26:52.799Z,68.33
2023-02-12T08:29:28.882Z,88.20
2023-02-12T08:32:01.159Z,71.97
2023-02-12T08:34:35.292Z,106.77
2023-02-12T08:37:06.272Z,81.93
2023-02-12T08:39:33.387Z,80.47
2023-02-12T08:42:01.730Z,72.07
2023-02-12T08:44:29.686Z,77.23
2023-02-12T08:46:56.907Z,80.57
2023-02-12T08:49:29.269Z,74.83
2023-02-12T08:51:59.948Z,78.67
2023-02-12T08:54:30.448Z,81.13
2023-02-12T08:57:01.756Z,75.60
2023-02-12T08:59:29.468Z,87.10
2023-02-12T09:04:04.433Z,126.90
2023-02-12T09:06:35.583Z,85.83
2023-02-12T09:09:03.514Z,66.43
2023-02-12T09:11:30.883Z,74.40
2023-02-12T09:14:11.193Z,70.87
2023-02-12T09:16:40.250Z,60.10
2023-02-12T09:19:11.068Z,62.23
2023-02-12T09:21:37.954Z,64.80
2023-02-12T09:24:05.181Z,48.27
2023-02-12T09:26:32.180Z,57.43
2023-02-12T09:29:03.006Z,54.33
2023-02-12T09:31:33.283Z,50.07
2023-02-12T09:34:07.216Z,52.37
2023-02-12T09:36:35.996Z,54.80
2023-02-12T09:39:05.410Z,47.30
2023-02-12T09:41:38.147Z,47.93
2023-02-12T09:44:33.153Z,42.67
2023-02-12T09:47:34.882Z,22.70
2023-02-12T09:50:38.391Z,38.13
2023-02-12T09:53:06.108Z,30.13
2023-02-12T09:55:35.503Z,25.17
2023-02-12T09:58:16.222Z,30.43
2023-02-12T10:00:44.535Z,31.43
2023-02-12T10:03:18.290Z,28.67
2023-02-12T10:06:07.397Z,20.10
2023-02-12T10:08:53.229Z,26.23
2023-02-12T10:12:12.593Z,22.97
2023-02-12T10:15:15.198Z,23.77
2023-02-12T10:18:02.303Z,22.50
2023-02-12T10:21:27.268Z,25.47
2023-02-12T10:24:59.108Z,31.33
2023-02-12T10:27:45.085Z,28.10
2023-02-12T10:30:49.411Z,21.30
2023-02-12T10:33:45.564Z,26.10
2023-02-12T10:36:44.942Z,27.73
2023-02-12T10:39:50.978Z,30.03
2023-02-12T10:42:39.388Z,25.83
2023-02-12T10:45:15.282Z,30.40
2023-02-12T10:47:42.277Z,27.00
2023-02-12T10:50:49.979Z,25.30
2023-02-12T10:53:41.973Z,34.07
2023-02-12T10:56:11.966Z,32.23
2023-02-12T10:58:55.555Z,25.63
2023-02-12T11:01:35.082Z,36.10
2023-02-12T11:04:23.261Z,31.50
2023-02-12T11:07:09.744Z,29.53
2023-02-12T11:09:50.180Z,29.60
2023-02-12T11:12:22.539Z,35.20
2023-02-12T11:14:58.128Z,35.27
2023-02-12T11:17:42.928Z,29.83
2023-02-12T11:20:18.898Z,29.00
2023-02-12T11:23:06.570Z,32.20
2023-02-12T11:25:37.721Z,29.53
2023-02-12T11:28:19.299Z,30.03
2023-02-12T11:31:12.252Z,25.10
2023-02-12T11:33:39.363Z,23.17
2023-02-12T11:36:24.955Z,23.27
2023-02-12T11:39:00.422Z,23.30
2023-02-12T11:41:38.075Z,19.93
2023-02-12T11:44:36.952Z,23.00
2023-02-12T11:47:11.983Z,25.53
2023-02-12T11:49:53.862Z,26.30
2023-02-12T11:52:31.278Z,25.70
2023-02-12T11:55:06.889Z,20.37
2023-02-12T11:58:07.129Z,20.67
2023-02-12T12:00:45.962Z,18.80
2023-02-12T12:03:53.593Z,22.37
2023-02-12T12:06:48.394Z,27.73
2023-02-12T12:09:30.732Z,24.83
2023-02-12T12:12:22.916Z,23.37
2023-02-12T12:15:19.894Z,27.23
2023-02-12T12:18:19.190Z,21.67
2023-02-12T12:21:01.265Z,22.00
2023-02-12T12:24:20.412Z,20.03
2023-02-12T12:27:03.101Z,19.23
2023-02-12T12:29:57.791Z,19.77
2023-02-12T12:32:31.675Z,18.53
2023-02-12T12:34:58.638Z,21.70
2023-02-12T12:37:57.540Z,22.90
2023-02-12T12:40:51.169Z,20.73
2023-02-12T12:43:43.756Z,16.53
2023-02-12T12:46:30.461Z,20.47
2023-02-12T12:49:34.582Z,16.97
2023-02-12T12:52:21.693Z,21.20
2023-02-12T12:55:44.165Z,21.50
2023-02-12T12:58:43.689Z,19.03
2023-02-12T13:02:14.870Z,23.97
2023-02-12T13:06:18.008Z,16.67
2023-02-12T13:09:23.941Z,21.97
2023-02-12T13:12:46.298Z,20.60
2023-02-12T13:16:03.733Z,17.70
2023-02-12T13:18:45.291Z,16.90
2023-02-12T13:21:51.251Z,17.47
2023-02-12T13:24:47.666Z,20.00
2023-02-12T13:27:26.174Z,21.67
2023-02-12T13:30:07.032Z,18.97
2023-02-12T13:33:14.928Z,18.27
2023-02-12T13:35:51.191Z,15.67
2023-02-12T13:38:28.573Z,18.20
2023-02-12T13:41:09.373Z,16.80
2023-02-12T13:44:16.243Z,18.97
2023-02-12T13:47:13.716Z,18.63
2023-02-12T13:50:31.376Z,22.70
2023-02-12T13:53:37.014Z,15.60
2023-02-12T13:56:29.569Z,19.13
2023-02-12T13:59:00.187Z,17.87
2023-02-12T14:01:49.188Z,20.50
2023-02-12T14:04:38.041Z,18.57
2023-02-12T14:07:07.603Z,22.23
2023-02-12T14:09:51.139Z,17.70
2023-02-12T14:12:26.868Z,18.30
2023-02-12T14:15:35.743Z,18.20
2023-02-12T14:18:02.511Z,21.23
2023-02-12T14:20:39.961Z,17.67
2023-02-12T14:23:28.933Z,20.13
2023-02-12T14:26:16.425Z,19.07
2023-02-12T14:28:54.872Z,17.77
2023-02-12T14:31:27.741Z,20.80
2023-02-12T14:34:07.455Z,21.10
2023-02-12T14:36:44.032Z,19.50
2023-02-12T14:39:19.789Z,22.47
2023-02-12T14:41:55.265Z,18.30
2023-02-12T14:44:26.689Z,20.00
2023-02-12T14:46:58.148Z,19.50
2023-02-12T14:49:26.379Z,25.93
2023-02-12T14:52:01.544Z,21.43
2023-02-12T14:54:43.258Z,26.10
2023-02-12T14:57:38.640Z,20.27
2023-02-12T15:00:17.674Z,23.17
2023-02-12T15:02:54.602Z,25.70
2023-02-12T15:05:34.407Z,21.97
2023-02-12T15:08:45.127Z,25.30
2023-02-12T15:11:52.426Z,21.40
2023-02-12T15:14:30.792Z,23.13
2023-02-12T15:17:17.771Z,27.40
2023-02-12T15:20:21.001Z,27.00
2023-02-12T15:22:47.939Z,20.50
2023-02-12T15:25:29.874Z,23.47
2023-02-12T15:28:25.397Z,23.83
2023-02-12T15:30:56.508Z,22.50
2023-02-12T15:33:32.771Z,29.43
2023-02-12T15:36:03.617Z,23.03
2023-02-12T15:38:41.878Z,25.03
2023-02-12T15:41:32.099Z,21.80
2023-02-12T15:44:02.736Z,20.00
2023-02-12T15:46:30.560Z,25.90
2023-02-12T15:48:57.904Z,27.00
2023-02-12T15:51:41.471Z,20.57
2023-02-12T15:54:08.468Z,23.80
2023-02-12T15:56:41.298Z,23.50
2023-02-12T15:59:23.609Z,23.77
2023-02-12T16:02:03.203Z,20.27
2023-02-12T16:04:42.040Z,25.20
2023-02-12T16:07:14.344Z,28.20
2023-02-12T16:09:43.458Z,21.70
2023-02-12T16:12:19.190Z,25.27
2023-02-12T16:14:57.401Z,26.50
2023-02-12T16:17:34.145Z,20.70
2023-02-12T16:20:24.689Z,17.63
2023-02-12T16:22:54.693Z,24.63
2023-02-12T16:25:26.341Z,21.93
2023-02-12T16:28:15.671Z,22.77
2023-02-12T16:30:44.940Z,26.10
2023-02-12T16:33:40.959Z,25.73
2023-02-12T16:36:20.375Z,20.43
2023-02-12T16:38:58.797Z,22.13
2023-02-12T16:41:31.598Z,25.30
2023-02-12T16:44:01.172Z,19.93
2023-02-12T16:46:34.979Z,23.47
2023-02-12T16:49:03.585Z,31.20
2023-02-12T16:51:37.226Z,19.80
2023-02-12T16:54:31.481Z,21.93
2023-02-12T16:56:59.847Z,24.43
2023-02-12T16:59:28.262Z,33.10
2023-02-12T17:02:10.756Z,27.27
2023-02-12T17:04:37.608Z,26.57
2023-02-12T17:07:18.931Z,42.40
2023-02-12T17:09:45.951Z,35.37
2023-02-12T17:12:12.937Z,36.60
2023-02-12T17:14:39.946Z,39.67
2023-02-12T17:17:07.046Z,38.50
2023-02-12T17:19:34.186Z,35.27
2023-02-12T17:22:01.222Z,37.20
2023-02-12T17:24:31.642Z,40.13
2023-02-12T17:26:58.539Z,38.87
2023-02-12T17:29:26.607Z,39.87
2023-02-12T17:31:55.753Z,44.90
2023-02-12T17:34:24.501Z,39.63
2023-02-12T17:36:52.955Z,37.13
2023-02-12T17:39:20.625Z,39.60
2023-02-12T17:41:48.099Z,38.60
2023-02-12T17:44:15.489Z,40.20
2023-02-12T17:46:43.127Z,41.83
2023-02-12T17:49:10.225Z,43.67
2023-02-12T17:51:38.140Z,39.17
2023-02-12T17:54:05.524Z,53.00
2023-02-12T17:56:32.551Z,50.47
2023-02-12T17:58:59.622Z,48.77
2023-02-12T18:01:27.233Z,57.47
2023-02-12T18:03:56.778Z,51.00
2023-02-12T18:06:29.098Z,45.50
2023-02-12T18:08:58.943Z,47.10
2023-02-12T18:11:26.036Z,47.90
2023-02-12T18:13:57.851Z,58.60
2023-02-12T18:16:30.218Z,55.83
2023-02-12T18:18:59.884Z,47.33
2023-02-12T18:21:27.643Z,54.17
2023-02-12T18:23:54.995Z,48.60
2023-02-12T18:26:23.175Z,49.50
2023-02-12T18:28:50.104Z,52.40
2023-02-12T18:31:20.843Z,51.27
2023-02-12T18:33:48.096Z,45.67
2023-02-12T18:36:19.617Z,49.53
2023-02-12T18:38:51.452Z,46.63
2023-02-12T18:41:27.314Z,57.40
2023-02-12T18:43:56.514Z,48.07
2023-02-12T18:46:29.687Z,39.60
2023-02-12T18:48:58.377Z,46.13
2023-02-12T18:51:31.739Z,49.40
2023-02-12T18:54:05.344Z,44.27
2023-02-12T18:56:40.721Z,43.20
2023-02-12T18:59:08.521Z,41.50
2023-02-12T19:01:36.816Z,33.73
2023-02-12T19:04:08.347Z,35.40
2023-02-12T19:06:46.444Z,36.07
2023-02-12T19:09:16.587Z,36.73
2023-02-12T19:11:46.905Z,32.40
2023-02-12T19:14:18.106Z,35.73
2023-02-12T19:16:46.528Z,32.27
2023-02-12T19:19:16.784Z,51.50
2023-02-12T19:21:44.246Z,40.67
2023-02-12T19:24:15.453Z,42.80
2023-02-12T19:26:44.305Z,39.73
2023-02-12T19:29:13.295Z,38.73
2023-02-12T19:31:46.059Z,39.13
2023-02-12T19:34:19.585Z,42.93
2023-02-12T19:36:49.508Z,39.30
2023-02-12T19:39:22.894Z,35.83
2023-02-12T19:41:51.392Z,39.73
2023-02-12T19:44:23.887Z,33.43
2023-02-12T19:46:52.256Z,41.03
2023-02-12T19:49:25.094Z,31.27
2023-02-12T19:51:52.406Z,36.90
2023-02-12T19:54:22.183Z,35.67
2023-02-12T19:56:50.672Z,38.07
2023-02-12T19:59:21.928Z,39.90
2023-02-12T20:01:50.272Z,38.10
2023-02-12T20:04:22.656Z,29.80
2023-02-12T20:06:50.848Z,36.07
2023-02-12T20:09:20.350Z,38.57
2023-02-12T20:11:47.440Z,40.20
2023-02-12T20:14:15.400Z,36.53
2023-02-12T20:16:46.404Z,38.40
2023-02-12T20:19:29.904Z,42.50
2023-02-12T20:22:01.360Z,39.67
2023-02-12T20:24:32.116Z,39.00
2023-02-12T20:27:02.802Z,24.60
2023-02-12T20:29:30.138Z,21.97
2023-02-12T20:31:57.532Z,24.43
2023-02-12T20:34:24.679Z,23.57
2023-02-12T20:36:51.892Z,21.87
2023-02-12T20:39:21.770Z,15.30
2023-02-12T20:41:49.586Z,17.60
2023-02-12T20:44:21.577Z,19.00
2023-02-12T20:46:55.844Z,26.30
2023-02-12T20:49:25.068Z,15.37
2023-02-12T20:51:52.583Z,14.47
2023-02-12T20:54:19.514Z,16.87
2023-02-12T20:56:50.469Z,15.33
2023-02-12T20:59:18.437Z,18.67
2023-02-12T21:01:45.720Z,16.40
2023-02-12T21:04:19.153Z,16.77
2023-02-12T21:06:48.082Z,12.47
2023-02-12T21:09:16.050Z,18.83
2023-02-12T21:11:45.708Z,13.00
2023-02-12T21:14:24.014Z,11.70
2023-02-12T21:16:55.403Z,14.47
2023-02-12T21:19:24.828Z,16.50
2023-02-12T21:21:52.422Z,15.17
2023-02-12T21:24:25.352Z,15.40
2023-02-12T21:26:55.637Z,18.87
2023-02-12T21:29:23.367Z,18.00
2023-02-12T21:31:51.519Z,15.30
2023-02-12T21:34:23.359Z,11.73
2023-02-12T21:36:55.142Z,13.90
2023-02-12T21:39:27.567Z,12.20
2023-02-12T21:42:02.926Z,11.17
2023-02-12T21:44:35.136Z,12.30
2023-02-12T21:47:02.189Z,9.43
2023-02-12T21:49:29.377Z,11.20
2023-02-12T21:52:05.806Z,13.33
2023-02-12T21:54:33.872Z,14.47
2023-02-12T21:57:01.169Z,15.47
2023-02-12T21:59:31.880Z,11.47
2023-02-12T22:02:00.545Z,12.60
2023-02-12T22:04:28.413Z,9.70
2023-02-12T22:06:56.375Z,9.00
2023-02-12T22:09:23.956Z,9.77
2023-02-12T22:11:52.364Z,8.00
2023-02-12T22:14:21.874Z,8.60
2023-02-12T22:16:49.161Z,12.40
2023-02-12T22:19:16.158Z,10.80
2023-02-12T22:21:44.388Z,9.77
2023-02-12T22:24:16.079Z,6.47
2023-02-12T22:26:44.152Z,12.02
2023-02-12T22:29:15.514Z,9.15
2023-02-12T22:31:46.099Z,7.17
2023-02-12T22:34:18.981Z,7.83
2023-02-12T22:36:47.460Z,11.00
2023-02-12T22:39:17.283Z,7.35
2023-02-12T22:41:44.850Z,7.90
2023-02-12T22:44:14.334Z,10.30
2023-02-12T22:46:43.929Z,6.72
2023-02-12T22:49:11.171Z,9.77
2023-02-12T22:51:39.563Z,11.00
2023-02-12T22:54:12.037Z,9.48
2023-02-12T22:56:38.890Z,7.37
2023-02-12T22:59:05.827Z,9.73
2023-02-12T23:01:33.231Z,15.05
2023-02-12T23:04:00.216Z,11.00
2023-02-12T23:06:31.023Z,12.52
2023-02-12T23:09:04.705Z,12.35
2023-02-12T23:11:33.414Z,11.27
2023-02-12T23:14:00.616Z,11.02
2023-02-12T23:16:27.932Z,12.40
2023-02-12T23:19:01.654Z,9.85
2023-02-12T23:21:31.616Z,9.10
2023-02-12T23:23:59.311Z,6.55
2023-02-12T23:26:28.694Z,9.07
2023-02-12T23:28:56.969Z,8.70
2023-02-12T23:31:25.343Z,7.18
2023-02-12T23:33:52.384Z,8.43
2023-02-12T23:36:19.319Z,7.57
2023-02-12T23:38:46.228Z,7.50
2023-02-12T23:41:13.175Z,8.85
2023-02-12T23:43:40.133Z,10.75
2023-02-12T23:46:08.087Z,10.07
2023-02-12T23:48:35.044Z,6.20
2023-02-12T23:51:01.902Z,6.93
2023-02-12T23:53:28.766Z,9.77
2023-02-12T23:55:55.728Z,9.55
2023-02-12T23:58:22.722Z,10.15
